sensor_id;sensor_type;location;lat;lon;timestamp;P1;durP1;ratioP1;P2;durP2;ratioP2
73954;SDS011;62306;52.516;13.290;2023-03-05T00:01:42;25.13;;;4.88;;
73954;SDS011;62306;52.516;13.290;2023-03-05T00:04:09;32.22;;;4.15;;
73954;SDS011;62306;52.516;13.290;2023-03-05T00:06:39;22.88;;;3.85;;
73954;SDS011;62306;52.516;13.290;2023-03-05T00:09:06;24.65;;;4.15;;
73954;SDS011;62306;52.516;13.290;2023-03-05T00:11:33;24.92;;;4.57;;
73954;SDS011;62306;52.516;13.290;2023-03-05T00:14:01;24.25;;;4.13;;
73954;SDS011;62306;52.516;13.290;2023-03-05T00:16:31;19.30;;;3.85;;
73954;SDS011;62306;52.516;13.290;2023-03-05T00:18:58;16.95;;;3.58;;
73954;SDS011;62306;52.516;13.290;2023-03-05T00:21:26;20.10;;;4.15;;
73954;SDS011;62306;52.516;13.290;2023-03-05T00:23:55;22.00;;;3.70;;
73954;SDS011;62306;52.516;13.290;2023-03-05T00:26:25;21.17;;;3.65;;
73954;SDS011;62306;52.516;13.290;2023-03-05T00:28:53;13.13;;;3.22;;
73954;SDS011;62306;52.516;13.290;2023-03-05T00:31:22;16.88;;;2.92;;
73954;SDS011;62306;52.516;13.290;2023-03-05T00:33:51;23.73;;;3.75;;
73954;SDS011;62306;52.516;13.290;2023-03-05T00:36:19;25.58;;;4.93;;
73954;SDS011;62306;52.516;13.290;2023-03-05T00:38:46;13.48;;;3.45;;
73954;SDS011;62306;52.516;13.290;2023-03-05T00:41:13;19.88;;;4.10;;
73954;SDS011;62306;52.516;13.290;2023-03-05T00:43:40;26.02;;;4.10;;
73954;SDS011;62306;52.516;13.290;2023-03-05T00:46:07;17.40;;;2.85;;
73954;SDS011;62306;52.516;13.290;2023-03-05T00:48:34;22.08;;;3.60;;
73954;SDS011;62306;52.516;13.290;2023-03-05T00:51:03;14.05;;;3.58;;
73954;SDS011;62306;52.516;13.290;2023-03-05T00:53:30;17.83;;;3.30;;
73954;SDS011;62306;52.516;13.290;2023-03-05T00:55:57;29.70;;;3.80;;
73954;SDS011;62306;52.516;13.290;2023-03-05T00:58:24;15.73;;;2.75;;
73954;SDS011;62306;52.516;13.290;2023-03-05T01:00:51;23.45;;;2.85;;
73954;SDS011;62306;52.516;13.290;2023-03-05T01:03:18;17.58;;;3.08;;
73954;SDS011;62306;52.516;13.290;2023-03-05T01:05:45;23.05;;;2.65;;
73954;SDS011;62306;52.516;13.290;2023-03-05T01:08:13;23.48;;;3.08;;
73954;SDS011;62306;52.516;13.290;2023-03-05T01:10:41;17.83;;;2.65;;
73954;SDS011;62306;52.516;13.290;2023-03-05T01:13:07;14.88;;;3.15;;
73954;SDS011;62306;52.516;13.290;2023-03-05T01:15:34;19.30;;;3.15;;
73954;SDS011;62306;52.516;13.290;2023-03-05T01:18:02;17.27;;;3.25;;
73954;SDS011;62306;52.516;13.290;2023-03-05T01:20:29;11.20;;;2.50;;
73954;SDS011;62306;52.516;13.290;2023-03-05T01:22:56;9.32;;;2.28;;
73954;SDS011;62306;52.516;13.290;2023-03-05T01:25:27;21.58;;;2.42;;
73954;SDS011;62306;52.516;13.290;2023-03-05T01:27:55;13.57;;;2.58;;
73954;SDS011;62306;52.516;13.290;2023-03-05T01:30:22;13.95;;;1.83;;
73954;SDS011;62306;52.516;13.290;2023-03-05T01:32:50;13.90;;;3.35;;
73954;SDS011;62306;52.516;13.290;2023-03-05T01:35:18;13.52;;;2.38;;
73954;SDS011;62306;52.516;13.290;2023-03-05T01:37:47;16.10;;;2.08;;
73954;SDS011;62306;52.516;13.290;2023-03-05T01:40:16;16.15;;;2.38;;
73954;SDS011;62306;52.516;13.290;2023-03-05T01:42:48;14.30;;;2.53;;
73954;SDS011;62306;52.516;13.290;2023-03-05T01:45:21;13.27;;;2.75;;
73954;SDS011;62306;52.516;13.290;2023-03-05T01:47:52;22.23;;;2.28;;
73954;SDS011;62306;52.516;13.290;2023-03-05T01:50:20;15.85;;;2.45;;
73954;SDS011;62306;52.516;13.290;2023-03-05T01:52:53;10.93;;;2.55;;
73954;SDS011;62306;52.516;13.290;2023-03-05T01:55:23;12.65;;;2.10;;
73954;SDS011;62306;52.516;13.290;2023-03-05T01:57:54;11.98;;;2.00;;
73954;SDS011;62306;52.516;13.290;2023-03-05T02:00:25;10.10;;;2.13;;
73954;SDS011;62306;52.516;13.290;2023-03-05T02:02:55;8.80;;;1.63;;
73954;SDS011;62306;52.516;13.290;2023-03-05T02:05:28;6.25;;;1.80;;
73954;SDS011;62306;52.516;13.290;2023-03-05T02:07:56;11.85;;;1.98;;
73954;SDS011;62306;52.516;13.290;2023-03-05T02:10:25;10.50;;;1.75;;
73954;SDS011;62306;52.516;13.290;2023-03-05T02:12:55;8.60;;;2.33;;
73954;SDS011;62306;52.516;13.290;2023-03-05T02:15:26;8.98;;;1.90;;
73954;SDS011;62306;52.516;13.290;2023-03-05T02:17:54;16.50;;;1.98;;
73954;SDS011;62306;52.516;13.290;2023-03-05T02:20:22;14.02;;;2.30;;
73954;SDS011;62306;52.516;13.290;2023-03-05T02:22:53;6.55;;;1.45;;
73954;SDS011;62306;52.516;13.290;2023-03-05T02:25:21;10.70;;;1.95;;
73954;SDS011;62306;52.516;13.290;2023-03-05T02:27:51;10.93;;;2.08;;
73954;SDS011;62306;52.516;13.290;2023-03-05T02:30:22;9.23;;;1.50;;
73954;SDS011;62306;52.516;13.290;2023-03-05T02:32:49;11.23;;;1.98;;
73954;SDS011;62306;52.516;13.290;2023-03-05T02:35:16;6.57;;;1.70;;
73954;SDS011;62306;52.516;13.290;2023-03-05T02:37:43;13.35;;;2.00;;
73954;SDS011;62306;52.516;13.290;2023-03-05T02:40:12;9.13;;;1.67;;
73954;SDS011;62306;52.516;13.290;2023-03-05T02:42:39;10.68;;;1.92;;
73954;SDS011;62306;52.516;13.290;2023-03-05T02:45:07;13.90;;;1.90;;
73954;SDS011;62306;52.516;13.290;2023-03-05T02:47:35;6.63;;;1.63;;
73954;SDS011;62306;52.516;13.290;2023-03-05T02:50:03;8.90;;;1.65;;
73954;SDS011;62306;52.516;13.290;2023-03-05T02:52:31;7.50;;;1.98;;
73954;SDS011;62306;52.516;13.290;2023-03-05T02:54:59;10.80;;;1.70;;
73954;SDS011;62306;52.516;13.290;2023-03-05T02:57:27;5.53;;;1.75;;
73954;SDS011;62306;52.516;13.290;2023-03-05T02:59:54;11.27;;;1.67;;
73954;SDS011;62306;52.516;13.290;2023-03-05T03:02:21;13.95;;;2.15;;
73954;SDS011;62306;52.516;13.290;2023-03-05T03:04:48;12.30;;;1.83;;
73954;SDS011;62306;52.516;13.290;2023-03-05T03:07:15;9.65;;;1.75;;
73954;SDS011;62306;52.516;13.290;2023-03-05T03:09:42;8.02;;;1.90;;
73954;SDS011;62306;52.516;13.290;2023-03-05T03:12:10;11.65;;;1.90;;
73954;SDS011;62306;52.516;13.290;2023-03-05T03:14:39;11.85;;;2.08;;
73954;SDS011;62306;52.516;13.290;2023-03-05T03:17:07;8.07;;;1.98;;
73954;SDS011;62306;52.516;13.290;2023-03-05T03:19:37;6.75;;;1.67;;
73954;SDS011;62306;52.516;13.290;2023-03-05T03:22:05;10.85;;;1.98;;
73954;SDS011;62306;52.516;13.290;2023-03-05T03:24:34;6.13;;;1.40;;
73954;SDS011;62306;52.516;13.290;2023-03-05T03:27:02;9.85;;;1.98;;
73954;SDS011;62306;52.516;13.290;2023-03-05T03:29:30;7.90;;;2.15;;
73954;SDS011;62306;52.516;13.290;2023-03-05T03:31:59;15.70;;;2.20;;
73954;SDS011;62306;52.516;13.290;2023-03-05T03:34:26;9.80;;;1.92;;
73954;SDS011;62306;52.516;13.290;2023-03-05T03:36:53;10.55;;;2.20;;
73954;SDS011;62306;52.516;13.290;2023-03-05T03:39:20;13.85;;;2.03;;
73954;SDS011;62306;52.516;13.290;2023-03-05T03:41:48;10.07;;;1.70;;
73954;SDS011;62306;52.516;13.290;2023-03-05T03:44:17;11.32;;;1.83;;
73954;SDS011;62306;52.516;13.290;2023-03-05T03:46:45;9.90;;;2.15;;
73954;SDS011;62306;52.516;13.290;2023-03-05T03:49:15;14.50;;;1.67;;
73954;SDS011;62306;52.516;13.290;2023-03-05T03:51:43;8.90;;;1.90;;
73954;SDS011;62306;52.516;13.290;2023-03-05T03:54:10;8.45;;;1.30;;
73954;SDS011;62306;52.516;13.290;2023-03-05T03:56:37;6.47;;;1.75;;
73954;SDS011;62306;52.516;13.290;2023-03-05T03:59:04;13.27;;;2.33;;
73954;SDS011;62306;52.516;13.290;2023-03-05T04:01:31;7.53;;;1.77;;
73954;SDS011;62306;52.516;13.290;2023-03-05T04:03:58;11.73;;;2.05;;
73954;SDS011;62306;52.516;13.290;2023-03-05T04:06:26;9.77;;;1.65;;
73954;SDS011;62306;52.516;13.290;2023-03-05T04:08:53;12.45;;;1.85;;
73954;SDS011;62306;52.516;13.290;2023-03-05T04:11:20;15.75;;;1.75;;
73954;SDS011;62306;52.516;13.290;2023-03-05T04:13:47;10.00;;;1.90;;
73954;SDS011;62306;52.516;13.290;2023-03-05T04:16:14;11.43;;;2.00;;
73954;SDS011;62306;52.516;13.290;2023-03-05T04:18:42;8.68;;;1.80;;
73954;SDS011;62306;52.516;13.290;2023-03-05T04:21:09;7.03;;;1.60;;
73954;SDS011;62306;52.516;13.290;2023-03-05T04:23:37;8.95;;;1.83;;
73954;SDS011;62306;52.516;13.290;2023-03-05T04:26:04;14.70;;;1.83;;
73954;SDS011;62306;52.516;13.290;2023-03-05T04:28:31;4.85;;;1.50;;
73954;SDS011;62306;52.516;13.290;2023-03-05T04:30:58;12.77;;;2.50;;
73954;SDS011;62306;52.516;13.290;2023-03-05T04:33:25;12.95;;;1.80;;
73954;SDS011;62306;52.516;13.290;2023-03-05T04:35:52;9.75;;;1.90;;
73954;SDS011;62306;52.516;13.290;2023-03-05T04:38:19;5.78;;;1.70;;
73954;SDS011;62306;52.516;13.290;2023-03-05T04:40:48;12.23;;;2.05;;
73954;SDS011;62306;52.516;13.290;2023-03-05T04:43:15;9.45;;;1.80;;
73954;SDS011;62306;52.516;13.290;2023-03-05T04:45:42;7.03;;;1.70;;
73954;SDS011;62306;52.516;13.290;2023-03-05T04:48:09;12.05;;;1.98;;
73954;SDS011;62306;52.516;13.290;2023-03-05T04:50:37;9.60;;;2.00;;
73954;SDS011;62306;52.516;13.290;2023-03-05T04:53:04;7.28;;;1.80;;
73954;SDS011;62306;52.516;13.290;2023-03-05T04:55:31;10.52;;;1.70;;
73954;SDS011;62306;52.516;13.290;2023-03-05T04:57:59;6.80;;;1.75;;
73954;SDS011;62306;52.516;13.290;2023-03-05T05:00:26;7.60;;;1.70;;
73954;SDS011;62306;52.516;13.290;2023-03-05T05:02:53;13.40;;;1.80;;
73954;SDS011;62306;52.516;13.290;2023-03-05T05:05:21;8.20;;;1.85;;
73954;SDS011;62306;52.516;13.290;2023-03-05T05:07:52;8.68;;;1.60;;
73954;SDS011;62306;52.516;13.290;2023-03-05T05:10:19;9.77;;;1.95;;
73954;SDS011;62306;52.516;13.290;2023-03-05T05:12:46;9.52;;;1.98;;
73954;SDS011;62306;52.516;13.290;2023-03-05T05:15:15;7.45;;;1.58;;
73954;SDS011;62306;52.516;13.290;2023-03-05T05:17:42;5.63;;;1.45;;
73954;SDS011;62306;52.516;13.290;2023-03-05T05:20:09;6.25;;;1.38;;
73954;SDS011;62306;52.516;13.290;2023-03-05T05:22:38;11.30;;;1.95;;
73954;SDS011;62306;52.516;13.290;2023-03-05T05:25:05;5.20;;;1.58;;
73954;SDS011;62306;52.516;13.290;2023-03-05T05:27:32;15.02;;;2.22;;
73954;SDS011;62306;52.516;13.290;2023-03-05T05:29:59;7.32;;;1.63;;
73954;SDS011;62306;52.516;13.290;2023-03-05T05:32:28;11.77;;;1.80;;
73954;SDS011;62306;52.516;13.290;2023-03-05T05:34:55;5.10;;;1.30;;
73954;SDS011;62306;52.516;13.290;2023-03-05T05:37:23;8.10;;;1.58;;
73954;SDS011;62306;52.516;13.290;2023-03-05T05:39:51;6.80;;;1.50;;
73954;SDS011;62306;52.516;13.290;2023-03-05T05:42:18;9.95;;;1.70;;
73954;SDS011;62306;52.516;13.290;2023-03-05T05:44:47;5.70;;;1.73;;
73954;SDS011;62306;52.516;13.290;2023-03-05T05:47:14;8.55;;;1.60;;
73954;SDS011;62306;52.516;13.290;2023-03-05T05:49:43;7.68;;;1.73;;
73954;SDS011;62306;52.516;13.290;2023-03-05T05:52:10;5.50;;;1.70;;
73954;SDS011;62306;52.516;13.290;2023-03-05T05:54:37;11.98;;;1.67;;
73954;SDS011;62306;52.516;13.290;2023-03-05T05:57:04;8.25;;;1.73;;
73954;SDS011;62306;52.516;13.290;2023-03-05T05:59:31;9.80;;;1.55;;
73954;SDS011;62306;52.516;13.290;2023-03-05T06:01:58;11.40;;;1.98;;
73954;SDS011;62306;52.516;13.290;2023-03-05T06:04:25;7.60;;;1.55;;
73954;SDS011;62306;52.516;13.290;2023-03-05T06:06:53;7.72;;;1.50;;
73954;SDS011;62306;52.516;13.290;2023-03-05T06:09:20;9.50;;;1.70;;
73954;SDS011;62306;52.516;13.290;2023-03-05T06:11:47;7.28;;;2.17;;
73954;SDS011;62306;52.516;13.290;2023-03-05T06:14:14;10.75;;;1.73;;
73954;SDS011;62306;52.516;13.290;2023-03-05T06:16:41;6.40;;;1.83;;
73954;SDS011;62306;52.516;13.290;2023-03-05T06:19:08;8.95;;;1.83;;
73954;SDS011;62306;52.516;13.290;2023-03-05T06:21:37;7.93;;;1.90;;
73954;SDS011;62306;52.516;13.290;2023-03-05T06:24:06;14.40;;;2.00;;
73954;SDS011;62306;52.516;13.290;2023-03-05T06:26:33;7.57;;;1.30;;
73954;SDS011;62306;52.516;13.290;2023-03-05T06:29:00;11.48;;;2.55;;
73954;SDS011;62306;52.516;13.290;2023-03-05T06:31:27;7.93;;;2.05;;
73954;SDS011;62306;52.516;13.290;2023-03-05T06:33:55;8.43;;;1.80;;
73954;SDS011;62306;52.516;13.290;2023-03-05T06:36:25;8.20;;;2.00;;
73954;SDS011;62306;52.516;13.290;2023-03-05T06:38:53;6.55;;;1.80;;
73954;SDS011;62306;52.516;13.290;2023-03-05T06:41:22;10.93;;;2.08;;
73954;SDS011;62306;52.516;13.290;2023-03-05T06:43:50;8.32;;;1.38;;
73954;SDS011;62306;52.516;13.290;2023-03-05T06:46:18;10.02;;;1.60;;
73954;SDS011;62306;52.516;13.290;2023-03-05T06:48:46;4.30;;;1.77;;
73954;SDS011;62306;52.516;13.290;2023-03-05T06:51:14;6.18;;;1.50;;
73954;SDS011;62306;52.516;13.290;2023-03-05T06:53:43;6.13;;;1.50;;
73954;SDS011;62306;52.516;13.290;2023-03-05T06:56:11;9.18;;;1.88;;
73954;SDS011;62306;52.516;13.290;2023-03-05T06:58:42;10.90;;;1.98;;
73954;SDS011;62306;52.516;13.290;2023-03-05T07:01:10;9.20;;;1.73;;
73954;SDS011;62306;52.516;13.290;2023-03-05T07:03:38;5.03;;;1.40;;
73954;SDS011;62306;52.516;13.290;2023-03-05T07:06:05;11.77;;;1.77;;
73954;SDS011;62306;52.516;13.290;2023-03-05T07:08:33;8.23;;;1.75;;
73954;SDS011;62306;52.516;13.290;2023-03-05T07:11:00;13.18;;;1.90;;
73954;SDS011;62306;52.516;13.290;2023-03-05T07:13:28;5.43;;;1.65;;
73954;SDS011;62306;52.516;13.290;2023-03-05T07:15:56;12.48;;;2.25;;
73954;SDS011;62306;52.516;13.290;2023-03-05T07:18:23;10.35;;;1.65;;
73954;SDS011;62306;52.516;13.290;2023-03-05T07:20:50;5.50;;;1.48;;
73954;SDS011;62306;52.516;13.290;2023-03-05T07:23:16;10.63;;;2.13;;
73954;SDS011;62306;52.516;13.290;2023-03-05T07:25:43;5.72;;;1.65;;
73954;SDS011;62306;52.516;13.290;2023-03-05T07:28:10;10.52;;;1.60;;
73954;SDS011;62306;52.516;13.290;2023-03-05T07:30:37;9.27;;;1.70;;
73954;SDS011;62306;52.516;13.290;2023-03-05T07:33:05;4.97;;;1.48;;
73954;SDS011;62306;52.516;13.290;2023-03-05T07:35:32;10.10;;;1.80;;
73954;SDS011;62306;52.516;13.290;2023-03-05T07:37:59;8.52;;;1.77;;
73954;SDS011;62306;52.516;13.290;2023-03-05T07:40:26;14.02;;;2.13;;
73954;SDS011;62306;52.516;13.290;2023-03-05T07:42:53;8.23;;;2.40;;
73954;SDS011;62306;52.516;13.290;2023-03-05T07:45:20;8.85;;;1.75;;
73954;SDS011;62306;52.516;13.290;2023-03-05T07:47:47;6.30;;;2.17;;
73954;SDS011;62306;52.516;13.290;2023-03-05T07:50:15;9.98;;;1.67;;
73954;SDS011;62306;52.516;13.290;2023-03-05T07:52:42;6.05;;;1.77;;
73954;SDS011;62306;52.516;13.290;2023-03-05T07:55:09;11.90;;;1.42;;
73954;SDS011;62306;52.516;13.290;2023-03-05T07:57:36;14.00;;;2.55;;
73954;SDS011;62306;52.516;13.290;2023-03-05T08:00:04;10.95;;;2.00;;
73954;SDS011;62306;52.516;13.290;2023-03-05T08:02:31;7.53;;;2.38;;
73954;SDS011;62306;52.516;13.290;2023-03-05T08:04:58;9.25;;;1.92;;
73954;SDS011;62306;52.516;13.290;2023-03-05T08:07:27;10.75;;;1.92;;
73954;SDS011;62306;52.516;13.290;2023-03-05T08:09:53;8.48;;;2.05;;
73954;SDS011;62306;52.516;13.290;2023-03-05T08:12:20;6.93;;;1.98;;
73954;SDS011;62306;52.516;13.290;2023-03-05T08:14:48;10.40;;;2.08;;
73954;SDS011;62306;52.516;13.290;2023-03-05T08:17:15;6.20;;;1.33;;
73954;SDS011;62306;52.516;13.290;2023-03-05T08:19:42;10.15;;;2.53;;
73954;SDS011;62306;52.516;13.290;2023-03-05T08:22:09;4.47;;;1.52;;
73954;SDS011;62306;52.516;13.290;2023-03-05T08:24:38;4.13;;;1.30;;
73954;SDS011;62306;52.516;13.290;2023-03-05T08:27:04;6.57;;;1.48;;
73954;SDS011;62306;52.516;13.290;2023-03-05T08:29:31;6.93;;;1.50;;
73954;SDS011;62306;52.516;13.290;2023-03-05T08:31:59;5.47;;;1.63;;
73954;SDS011;62306;52.516;13.290;2023-03-05T08:34:26;6.75;;;1.48;;
73954;SDS011;62306;52.516;13.290;2023-03-05T08:36:53;7.38;;;1.52;;
73954;SDS011;62306;52.516;13.290;2023-03-05T08:39:19;3.85;;;1.48;;
73954;SDS011;62306;52.516;13.290;2023-03-05T08:41:48;9.40;;;1.63;;
73954;SDS011;62306;52.516;13.290;2023-03-05T08:44:15;6.07;;;1.77;;
73954;SDS011;62306;52.516;13.290;2023-03-05T08:46:49;8.23;;;1.98;;
73954;SDS011;62306;52.516;13.290;2023-03-05T08:49:16;5.47;;;1.60;;
73954;SDS011;62306;52.516;13.290;2023-03-05T08:51:43;8.10;;;2.00;;
73954;SDS011;62306;52.516;13.290;2023-03-05T08:54:10;11.13;;;1.83;;
73954;SDS011;62306;52.516;13.290;2023-03-05T08:56:37;8.55;;;1.65;;
73954;SDS011;62306;52.516;13.290;2023-03-05T08:59:04;4.28;;;1.25;;
73954;SDS011;62306;52.516;13.290;2023-03-05T09:01:32;8.93;;;1.75;;
73954;SDS011;62306;52.516;13.290;2023-03-05T09:04:01;5.45;;;1.38;;
73954;SDS011;62306;52.516;13.290;2023-03-05T09:06:28;8.63;;;1.42;;
73954;SDS011;62306;52.516;13.290;2023-03-05T09:08:54;8.75;;;1.85;;
73954;SDS011;62306;52.516;13.290;2023-03-05T09:11:21;2.38;;;1.17;;
73954;SDS011;62306;52.516;13.290;2023-03-05T09:13:48;5.78;;;1.67;;
73954;SDS011;62306;52.516;13.290;2023-03-05T09:16:16;9.27;;;1.77;;
73954;SDS011;62306;52.516;13.290;2023-03-05T09:18:43;5.32;;;1.88;;
73954;SDS011;62306;52.516;13.290;2023-03-05T09:21:12;5.63;;;1.38;;
73954;SDS011;62306;52.516;13.290;2023-03-05T09:23:42;4.18;;;1.13;;
73954;SDS011;62306;52.516;13.290;2023-03-05T09:26:11;5.60;;;1.52;;
73954;SDS011;62306;52.516;13.290;2023-03-05T09:28:39;10.15;;;2.00;;
73954;SDS011;62306;52.516;13.290;2023-03-05T09:31:07;6.47;;;1.38;;
73954;SDS011;62306;52.516;13.290;2023-03-05T09:33:35;9.70;;;1.55;;
73954;SDS011;62306;52.516;13.290;2023-03-05T09:36:03;6.38;;;1.45;;
73954;SDS011;62306;52.516;13.290;2023-03-05T09:38:32;9.05;;;1.48;;
73954;SDS011;62306;52.516;13.290;2023-03-05T09:41:02;11.82;;;3.88;;
73954;SDS011;62306;52.516;13.290;2023-03-05T09:43:34;7.38;;;1.38;;
73954;SDS011;62306;52.516;13.290;2023-03-05T09:46:12;5.97;;;1.88;;
73954;SDS011;62306;52.516;13.290;2023-03-05T09:48:50;6.82;;;1.63;;
73954;SDS011;62306;52.516;13.290;2023-03-05T09:51:21;7.85;;;1.70;;
73954;SDS011;62306;52.516;13.290;2023-03-05T09:53:54;4.10;;;1.30;;
73954;SDS011;62306;52.516;13.290;2023-03-05T09:56:27;7.13;;;1.90;;
73954;SDS011;62306;52.516;13.290;2023-03-05T09:58:57;10.07;;;3.67;;
73954;SDS011;62306;52.516;13.290;2023-03-05T10:01:29;7.57;;;1.73;;
73954;SDS011;62306;52.516;13.290;2023-03-05T10:04:03;8.60;;;1.65;;
73954;SDS011;62306;52.516;13.290;2023-03-05T10:06:36;5.35;;;1.73;;
73954;SDS011;62306;52.516;13.290;2023-03-05T10:09:13;5.60;;;1.75;;
73954;SDS011;62306;52.516;13.290;2023-03-05T10:11:48;5.13;;;1.58;;
73954;SDS011;62306;52.516;13.290;2023-03-05T10:14:22;6.18;;;2.08;;
73954;SDS011;62306;52.516;13.290;2023-03-05T10:16:55;4.85;;;1.58;;
73954;SDS011;62306;52.516;13.290;2023-03-05T10:22:29;5.90;;;1.77;;
73954;SDS011;62306;52.516;13.290;2023-03-05T10:25:06;8.77;;;1.65;;
73954;SDS011;62306;52.516;13.290;2023-03-05T10:27:45;9.13;;;2.05;;
73954;SDS011;62306;52.516;13.290;2023-03-05T10:30:37;4.00;;;2.00;;
73954;SDS011;62306;52.516;13.290;2023-03-05T10:33:20;6.15;;;2.17;;
73954;SDS011;62306;52.516;13.290;2023-03-05T10:38:54;7.55;;;2.45;;
73954;SDS011;62306;52.516;13.290;2023-03-05T10:41:36;5.53;;;1.77;;
73954;SDS011;62306;52.516;13.290;2023-03-05T10:44:08;6.13;;;2.17;;
73954;SDS011;62306;52.516;13.290;2023-03-05T10:46:41;8.13;;;1.88;;
73954;SDS011;62306;52.516;13.290;2023-03-05T10:49:13;7.38;;;1.90;;
73954;SDS011;62306;52.516;13.290;2023-03-05T10:51:46;4.20;;;1.60;;
73954;SDS011;62306;52.516;13.290;2023-03-05T10:56:50;7.30;;;1.90;;
73954;SDS011;62306;52.516;13.290;2023-03-05T10:59:28;6.25;;;1.77;;
73954;SDS011;62306;52.516;13.290;2023-03-05T11:02:02;4.50;;;2.17;;
73954;SDS011;62306;52.516;13.290;2023-03-05T11:04:33;9.77;;;2.05;;
73954;SDS011;62306;52.516;13.290;2023-03-05T11:07:05;6.03;;;2.10;;
73954;SDS011;62306;52.516;13.290;2023-03-05T11:09:33;7.28;;;1.95;;
73954;SDS011;62306;52.516;13.290;2023-03-05T11:12:02;11.18;;;2.15;;
73954;SDS011;62306;52.516;13.290;2023-03-05T11:14:36;8.27;;;2.55;;
73954;SDS011;62306;52.516;13.290;2023-03-05T11:19:52;7.10;;;2.00;;
73954;SDS011;62306;52.516;13.290;2023-03-05T11:22:19;5.40;;;1.90;;
73954;SDS011;62306;52.516;13.290;2023-03-05T11:25:01;10.75;;;2.50;;
73954;SDS011;62306;52.516;13.290;2023-03-05T11:27:33;4.80;;;2.22;;
73954;SDS011;62306;52.516;13.290;2023-03-05T11:30:02;10.68;;;2.00;;
73954;SDS011;62306;52.516;13.290;2023-03-05T11:32:43;5.53;;;1.80;;
73954;SDS011;62306;52.516;13.290;2023-03-05T11:35:20;5.95;;;1.83;;
73954;SDS011;62306;52.516;13.290;2023-03-05T11:38:00;3.42;;;1.60;;
73954;SDS011;62306;52.516;13.290;2023-03-05T11:40:28;9.00;;;1.63;;
73954;SDS011;62306;52.516;13.290;2023-03-05T11:42:58;5.22;;;1.85;;
73954;SDS011;62306;52.516;13.290;2023-03-05T11:45:27;7.63;;;1.85;;
73954;SDS011;62306;52.516;13.290;2023-03-05T11:47:57;10.15;;;2.38;;
73954;SDS011;62306;52.516;13.290;2023-03-05T11:50:31;6.57;;;1.75;;
73954;SDS011;62306;52.516;13.290;2023-03-05T11:53:01;5.75;;;1.60;;
73954;SDS011;62306;52.516;13.290;2023-03-05T11:55:32;7.90;;;1.80;;
73954;SDS011;62306;52.516;13.290;2023-03-05T11:58:12;5.05;;;2.10;;
73954;SDS011;62306;52.516;13.290;2023-03-05T12:00:49;6.30;;;1.98;;
73954;SDS011;62306;52.516;13.290;2023-03-05T12:03:16;9.93;;;2.55;;
73954;SDS011;62306;52.516;13.290;2023-03-05T12:05:47;5.93;;;1.90;;
73954;SDS011;62306;52.516;13.290;2023-03-05T12:08:17;4.95;;;2.25;;
73954;SDS011;62306;52.516;13.290;2023-03-05T12:13:19;4.57;;;2.35;;
73954;SDS011;62306;52.516;13.290;2023-03-05T12:15:55;5.65;;;2.15;;
73954;SDS011;62306;52.516;13.290;2023-03-05T12:18:33;7.07;;;1.98;;
73954;SDS011;62306;52.516;13.290;2023-03-05T12:21:13;8.30;;;2.45;;
73954;SDS011;62306;52.516;13.290;2023-03-05T12:23:43;9.15;;;2.72;;
73954;SDS011;62306;52.516;13.290;2023-03-05T12:26:12;8.43;;;2.58;;
73954;SDS011;62306;52.516;13.290;2023-03-05T12:33:59;5.78;;;1.77;;
73954;SDS011;62306;52.516;13.290;2023-03-05T12:37:06;5.90;;;1.83;;
73954;SDS011;62306;52.516;13.290;2023-03-05T12:39:49;8.35;;;1.55;;
73954;SDS011;62306;52.516;13.290;2023-03-05T12:42:43;9.05;;;2.40;;
73954;SDS011;62306;52.516;13.290;2023-03-05T12:45:24;8.07;;;2.33;;
73954;SDS011;62306;52.516;13.290;2023-03-05T12:50:57;10.68;;;2.33;;
73954;SDS011;62306;52.516;13.290;2023-03-05T12:53:24;6.10;;;2.38;;
73954;SDS011;62306;52.516;13.290;2023-03-05T12:55:56;6.30;;;2.00;;
73954;SDS011;62306;52.516;13.290;2023-03-05T12:58:32;6.38;;;2.03;;
73954;SDS011;62306;52.516;13.290;2023-03-05T13:01:05;4.18;;;2.03;;
73954;SDS011;62306;52.516;13.290;2023-03-05T13:03:42;8.27;;;2.22;;
73954;SDS011;62306;52.516;13.290;2023-03-05T13:06:22;7.10;;;2.00;;
73954;SDS011;62306;52.516;13.290;2023-03-05T13:08:55;8.88;;;2.38;;
73954;SDS011;62306;52.516;13.290;2023-03-05T13:11:23;6.88;;;2.03;;
73954;SDS011;62306;52.516;13.290;2023-03-05T13:13:51;10.18;;;3.45;;
73954;SDS011;62306;52.516;13.290;2023-03-05T13:16:21;9.80;;;2.22;;
73954;SDS011;62306;52.516;13.290;2023-03-05T13:18:50;6.40;;;2.10;;
73954;SDS011;62306;52.516;13.290;2023-03-05T13:21:22;2.58;;;2.00;;
73954;SDS011;62306;52.516;13.290;2023-03-05T13:23:51;5.57;;;2.38;;
73954;SDS011;62306;52.516;13.290;2023-03-05T13:26:22;6.07;;;2.60;;
73954;SDS011;62306;52.516;13.290;2023-03-05T13:29:01;8.05;;;2.05;;
73954;SDS011;62306;52.516;13.290;2023-03-05T13:31:32;3.78;;;1.90;;
73954;SDS011;62306;52.516;13.290;2023-03-05T13:34:04;6.65;;;2.08;;
73954;SDS011;62306;52.516;13.290;2023-03-05T13:36:36;9.95;;;2.83;;
73954;SDS011;62306;52.516;13.290;2023-03-05T13:39:04;12.35;;;3.70;;
73954;SDS011;62306;52.516;13.290;2023-03-05T13:41:31;4.05;;;1.98;;
73954;SDS011;62306;52.516;13.290;2023-03-05T13:43:59;4.25;;;2.50;;
73954;SDS011;62306;52.516;13.290;2023-03-05T13:46:28;7.40;;;2.33;;
73954;SDS011;62306;52.516;13.290;2023-03-05T13:51:45;5.80;;;2.15;;
73954;SDS011;62306;52.516;13.290;2023-03-05T13:54:13;2.58;;;1.50;;
73954;SDS011;62306;52.516;13.290;2023-03-05T13:56:48;9.30;;;1.95;;
73954;SDS011;62306;52.516;13.290;2023-03-05T13:59:16;6.72;;;2.15;;
73954;SDS011;62306;52.516;13.290;2023-03-05T14:01:44;2.40;;;1.70;;
73954;SDS011;62306;52.516;13.290;2023-03-05T14:04:18;7.20;;;2.13;;
73954;SDS011;62306;52.516;13.290;2023-03-05T14:06:48;5.82;;;3.10;;
73954;SDS011;62306;52.516;13.290;2023-03-05T14:09:19;8.65;;;2.13;;
73954;SDS011;62306;52.516;13.290;2023-03-05T14:11:52;5.43;;;2.13;;
73954;SDS011;62306;52.516;13.290;2023-03-05T14:14:27;6.60;;;2.03;;
73954;SDS011;62306;52.516;13.290;2023-03-05T14:19:49;4.25;;;1.60;;
73954;SDS011;62306;52.516;13.290;2023-03-05T14:22:29;5.80;;;1.60;;
73954;SDS011;62306;52.516;13.290;2023-03-05T14:24:57;8.98;;;2.30;;
73954;SDS011;62306;52.516;13.290;2023-03-05T14:27:24;3.15;;;1.67;;
73954;SDS011;62306;52.516;13.290;2023-03-05T14:29:52;2.50;;;1.10;;
73954;SDS011;62306;52.516;13.290;2023-03-05T14:32:20;5.53;;;1.60;;
73954;SDS011;62306;52.516;13.290;2023-03-05T14:34:55;5.20;;;1.30;;
73954;SDS011;62306;52.516;13.290;2023-03-05T14:37:25;1.95;;;1.00;;
73954;SDS011;62306;52.516;13.290;2023-03-05T14:39:58;8.52;;;1.88;;
73954;SDS011;62306;52.516;13.290;2023-03-05T14:42:30;11.63;;;4.35;;
73954;SDS011;62306;52.516;13.290;2023-03-05T14:45:00;9.30;;;3.20;;
73954;SDS011;62306;52.516;13.290;2023-03-05T14:47:35;9.10;;;3.40;;
73954;SDS011;62306;52.516;13.290;2023-03-05T14:50:04;7.40;;;2.60;;
73954;SDS011;62306;52.516;13.290;2023-03-05T14:52:32;5.50;;;2.35;;
73954;SDS011;62306;52.516;13.290;2023-03-05T14:55:00;10.23;;;3.10;;
73954;SDS011;62306;52.516;13.290;2023-03-05T14:57:27;9.60;;;2.95;;
73954;SDS011;62306;52.516;13.290;2023-03-05T14:59:57;7.78;;;2.55;;
73954;SDS011;62306;52.516;13.290;2023-03-05T15:02:25;8.23;;;2.22;;
73954;SDS011;62306;52.516;13.290;2023-03-05T15:04:52;6.22;;;2.08;;
73954;SDS011;62306;52.516;13.290;2023-03-05T15:07:21;6.80;;;2.10;;
73954;SDS011;62306;52.516;13.290;2023-03-05T15:09:51;2.60;;;1.60;;
73954;SDS011;62306;52.516;13.290;2023-03-05T15:12:18;3.17;;;1.40;;